createdAt,value
2018-12-18T00:00:39.961Z,7.80
2018-12-18T00:03:07.595Z,7.80
2018-12-18T00:05:35.131Z,7.80
2018-12-18T00:08:02.825Z,7.70
2018-12-18T00:10:36.053Z,7.80
2018-12-18T00:13:03.604Z,7.80
2018-12-18T00:15:31.177Z,7.80
2018-12-18T00:17:58.681Z,7.90
2018-12-18T00:20:26.268Z,7.90
2018-12-18T00:22:53.789Z,7.90
2018-12-18T00:25:21.345Z,7.90
2018-12-18T00:27:49.531Z,7.90
2018-12-18T00:30:17.076Z,7.90
2018-12-18T00:32:44.748Z,7.90
2018-12-18T00:35:12.293Z,7.90
2018-12-18T00:37:39.893Z,7.80
2018-12-18T00:40:07.583Z,7.90
2018-12-18T00:42:35.167Z,7.90
2018-12-18T00:45:02.719Z,7.90
2018-12-18T00:47:30.233Z,8.00
2018-12-18T00:49:57.781Z,8.00
2018-12-18T00:52:25.303Z,8.00
2018-12-18T00:54:52.874Z,8.00
2018-12-18T00:57:20.403Z,7.90
2018-12-18T00:59:48.041Z,8.00
2018-12-18T01:02:15.533Z,8.00
2018-12-18T01:04:45.065Z,7.90
2018-12-18T01:07:12.581Z,7.90
2018-12-18T01:09:40.153Z,7.90
2018-12-18T01:12:07.801Z,7.90
2018-12-18T01:14:35.406Z,7.90
2018-12-18T01:17:02.931Z,8.00
2018-12-18T01:19:34.835Z,8.00
2018-12-18T01:22:02.375Z,7.90
2018-12-18T01:24:30.786Z,7.90
2018-12-18T01:26:58.335Z,7.90
2018-12-18T01:29:25.908Z,7.90
2018-12-18T01:31:53.585Z,7.90
2018-12-18T01:34:21.138Z,7.90
2018-12-18T01:36:48.718Z,7.90
2018-12-18T01:39:16.223Z,7.90
2018-12-18T01:41:43.759Z,8.00
2018-12-18T01:44:11.339Z,8.00
2018-12-18T01:46:38.867Z,8.00
2018-12-18T01:49:06.569Z,7.90
2018-12-18T01:51:34.074Z,8.00
2018-12-18T01:54:02.048Z,8.00
2018-12-18T01:56:29.569Z,7.90
2018-12-18T01:58:57.163Z,7.80
2018-12-18T02:01:24.653Z,7.90
2018-12-18T02:03:52.294Z,7.90
2018-12-18T02:06:19.871Z,7.90
2018-12-18T02:08:47.361Z,7.80
2018-12-18T02:11:14.902Z,7.80
2018-12-18T02:13:42.396Z,7.70
2018-12-18T02:16:10.248Z,7.70
2018-12-18T02:18:37.821Z,7.80
2018-12-18T02:21:05.402Z,7.80
2018-12-18T02:23:33.260Z,7.80
2018-12-18T02:26:00.828Z,7.80
2018-12-18T02:28:28.401Z,7.80
2018-12-18T02:30:56.003Z,7.80
2018-12-18T02:33:23.525Z,7.80
2018-12-18T02:35:51.141Z,7.80
2018-12-18T02:38:18.775Z,7.70
2018-12-18T02:40:46.369Z,7.70
2018-12-18T02:43:13.866Z,7.80
2018-12-18T02:45:41.387Z,7.80
2018-12-18T02:48:09.054Z,7.70
2018-12-18T02:50:36.568Z,7.70
2018-12-18T02:53:05.497Z,7.80
2018-12-18T02:55:33.216Z,7.80
2018-12-18T02:58:00.728Z,7.90
2018-12-18T03:00:28.270Z,8.00
2018-12-18T03:02:55.810Z,8.00
2018-12-18T03:05:23.393Z,8.00
2018-12-18T03:07:50.945Z,8.00
2018-12-18T03:10:18.636Z,8.00
2018-12-18T03:12:46.151Z,8.00
2018-12-18T03:15:13.750Z,7.90
2018-12-18T03:17:41.305Z,7.90
2018-12-18T03:20:08.887Z,7.90
2018-12-18T03:22:36.404Z,7.90
2018-12-18T03:25:04.545Z,7.90
2018-12-18T03:27:32.088Z,7.90
2018-12-18T03:29:59.716Z,7.90
2018-12-18T03:32:28.000Z,7.90
2018-12-18T03:34:55.600Z,7.90
2018-12-18T03:37:23.206Z,7.90
2018-12-18T03:39:50.727Z,8.00
2018-12-18T03:42:18.274Z,8.00
2018-12-18T03:44:45.809Z,8.00
2018-12-18T03:47:13.386Z,8.00
2018-12-18T03:49:40.962Z,7.90
2018-12-18T03:52:08.447Z,7.90
2018-12-18T03:54:35.992Z,7.90
2018-12-18T03:57:03.506Z,7.90
2018-12-18T03:59:30.998Z,7.90
2018-12-18T04:01:58.602Z,7.90
2018-12-18T04:04:26.129Z,7.80
2018-12-18T04:06:53.648Z,7.80
2018-12-18T04:09:21.202Z,7.90
2018-12-18T04:11:54.470Z,7.90
2018-12-18T04:14:22.025Z,7.90
2018-12-18T04:16:49.544Z,7.90
2018-12-18T04:19:17.139Z,7.90
2018-12-18T04:21:44.718Z,7.80
2018-12-18T04:24:12.216Z,7.80
2018-12-18T04:26:39.710Z,7.80
2018-12-18T04:29:07.247Z,7.80
2018-12-18T04:31:34.796Z,7.80
2018-12-18T04:34:02.327Z,7.80
2018-12-18T04:36:29.904Z,7.70
2018-12-18T04:38:57.428Z,7.70
2018-12-18T04:41:24.926Z,7.70
2018-12-18T04:43:52.541Z,7.60
2018-12-18T04:46:20.031Z,7.60
2018-12-18T04:48:47.547Z,7.60
2018-12-18T04:51:15.076Z,7.60
2018-12-18T04:53:42.585Z,7.60
2018-12-18T04:56:10.244Z,7.60
2018-12-18T04:58:37.812Z,7.60
2018-12-18T05:01:05.389Z,7.70
2018-12-18T05:03:32.920Z,7.60
2018-12-18T05:06:00.566Z,7.60
2018-12-18T05:08:28.094Z,7.60
2018-12-18T05:10:55.601Z,7.60
2018-12-18T05:13:23.126Z,7.50
2018-12-18T05:15:50.715Z,7.50
2018-12-18T05:18:18.215Z,7.50
2018-12-18T05:20:45.877Z,7.50
2018-12-18T05:23:14.151Z,7.60
2018-12-18T05:25:41.694Z,7.60
2018-12-18T05:28:09.250Z,7.60
2018-12-18T05:30:36.763Z,7.70
2018-12-18T05:33:04.294Z,7.70
2018-12-18T05:35:32.411Z,7.70
2018-12-18T05:37:59.899Z,7.70
2018-12-18T05:40:27.424Z,7.80
2018-12-18T05:42:55.011Z,7.80
2018-12-18T05:45:22.575Z,7.70
2018-12-18T05:47:50.117Z,7.70
2018-12-18T05:50:17.801Z,7.70
2018-12-18T05:52:45.363Z,7.70
2018-12-18T05:55:12.878Z,7.70
2018-12-18T05:57:40.375Z,7.70
2018-12-18T06:00:08.061Z,7.70
2018-12-18T06:02:35.653Z,7.70
2018-12-18T06:05:03.605Z,7.60
2018-12-18T06:07:31.247Z,7.60
2018-12-18T06:09:58.757Z,7.70
2018-12-18T06:12:26.959Z,7.70
2018-12-18T06:14:54.452Z,7.60
2018-12-18T06:17:22.300Z,7.60
2018-12-18T06:19:49.881Z,7.70
2018-12-18T06:22:17.459Z,7.70
2018-12-18T06:24:44.987Z,7.70
2018-12-18T06:27:12.513Z,7.70
2018-12-18T06:29:40.089Z,7.80
2018-12-18T06:32:07.649Z,7.80
2018-12-18T06:34:35.204Z,7.80
2018-12-18T06:37:02.776Z,7.90
2018-12-18T06:39:30.329Z,7.80
2018-12-18T06:41:57.982Z,7.80
2018-12-18T06:44:25.555Z,7.80
2018-12-18T06:46:53.234Z,7.90
2018-12-18T06:49:20.742Z,7.90
2018-12-18T06:51:48.266Z,7.90
2018-12-18T06:54:15.818Z,7.90
2018-12-18T06:56:43.539Z,7.90
2018-12-18T06:59:11.099Z,7.80
2018-12-18T07:01:38.646Z,7.80
2018-12-18T07:04:06.172Z,7.80
2018-12-18T07:06:33.813Z,7.80
2018-12-18T07:09:01.476Z,7.80
2018-12-18T07:11:29.043Z,7.90
2018-12-18T07:13:56.614Z,7.90
2018-12-18T07:16:24.165Z,7.90
2018-12-18T07:18:51.689Z,7.90
2018-12-18T07:21:19.225Z,7.90
2018-12-18T07:23:46.761Z,7.90
2018-12-18T07:26:14.844Z,7.90
2018-12-18T07:28:42.426Z,7.90
2018-12-18T07:31:09.998Z,7.90
2018-12-18T07:33:37.530Z,7.90
2018-12-18T07:36:05.048Z,7.90
2018-12-18T07:38:32.574Z,7.90
2018-12-18T07:41:00.162Z,7.90
2018-12-18T07:43:27.650Z,7.90
2018-12-18T07:45:55.198Z,7.90
2018-12-18T07:48:22.696Z,7.90
2018-12-18T07:50:50.273Z,8.00
2018-12-18T07:53:17.818Z,7.90
2018-12-18T07:55:45.398Z,7.90
2018-12-18T07:58:12.968Z,8.00
2018-12-18T08:00:40.527Z,8.00
2018-12-18T08:03:08.054Z,8.00
2018-12-18T08:05:35.556Z,8.00
2018-12-18T08:08:03.074Z,8.00
2018-12-18T08:10:30.703Z,8.00
2018-12-18T08:12:58.256Z,8.00
2018-12-18T08:15:25.829Z,8.00
2018-12-18T08:17:53.352Z,8.00
2018-12-18T08:20:21.482Z,8.00
2018-12-18T08:22:48.998Z,7.90
2018-12-18T08:25:16.502Z,8.00
2018-12-18T08:27:43.994Z,8.00
2018-12-18T08:30:11.571Z,8.00
2018-12-18T08:32:39.121Z,8.00
2018-12-18T08:35:06.723Z,8.10
2018-12-18T08:37:34.320Z,8.10
2018-12-18T08:40:01.873Z,8.10
2018-12-18T08:42:29.529Z,8.10
2018-12-18T08:44:57.041Z,8.10
2018-12-18T08:47:24.632Z,8.10
2018-12-18T08:49:52.749Z,8.10
2018-12-18T08:52:20.282Z,8.20
2018-12-18T08:54:47.860Z,8.20
2018-12-18T08:57:15.398Z,8.20
2018-12-18T08:59:42.924Z,8.20
2018-12-18T09:02:10.462Z,8.30
2018-12-18T09:04:38.045Z,8.30
2018-12-18T09:07:05.565Z,8.40
2018-12-18T09:09:33.199Z,8.40
2018-12-18T09:12:00.741Z,8.40
2018-12-18T09:14:28.385Z,8.40
2018-12-18T09:17:02.391Z,8.50
2018-12-18T09:19:30.028Z,8.50
2018-12-18T09:21:57.667Z,8.60
2018-12-18T09:24:25.249Z,8.60
2018-12-18T09:26:52.805Z,8.70
2018-12-18T09:29:20.406Z,8.90
2018-12-18T09:31:47.935Z,8.90
2018-12-18T09:34:15.489Z,9.00
2018-12-18T09:36:43.095Z,8.90
2018-12-18T09:39:16.321Z,8.80
2018-12-18T09:41:45.769Z,8.70
2018-12-18T09:44:16.773Z,8.30
2018-12-18T09:46:44.323Z,8.20
2018-12-18T09:49:11.902Z,8.10
2018-12-18T09:51:39.463Z,8.10
2018-12-18T09:54:07.035Z,8.00
2018-12-18T09:56:36.466Z,8.10
2018-12-18T09:59:03.969Z,8.20
2018-12-18T10:01:31.463Z,8.30
2018-12-18T10:03:59.075Z,8.50
2018-12-18T10:06:26.856Z,8.50
2018-12-18T10:08:54.386Z,8.40
2018-12-18T10:11:21.955Z,8.50
2018-12-18T10:13:49.664Z,8.50
2018-12-18T10:16:17.206Z,8.40
2018-12-18T10:18:44.799Z,8.30
2018-12-18T10:21:12.359Z,8.30
2018-12-18T10:23:39.849Z,8.20
2018-12-18T10:26:07.386Z,8.10
2018-12-18T10:28:35.059Z,8.10
2018-12-18T10:31:02.623Z,8.00
2018-12-18T10:33:30.167Z,8.00
2018-12-18T10:36:03.030Z,7.90
2018-12-18T10:38:27.499Z,7.90
2018-12-18T10:40:55.036Z,7.90
2018-12-18T10:43:22.607Z,7.80
2018-12-18T10:45:50.103Z,7.70
2018-12-18T10:48:17.836Z,7.80
2018-12-18T10:50:45.371Z,7.90
2018-12-18T10:53:12.933Z,8.10
2018-12-18T10:55:40.583Z,8.20
2018-12-18T10:58:08.138Z,8.30
2018-12-18T11:00:41.362Z,8.40
2018-12-18T11:03:08.849Z,8.60
2018-12-18T11:05:36.413Z,8.70
2018-12-18T11:08:04.907Z,8.80
2018-12-18T11:10:32.454Z,8.80
2018-12-18T11:13:05.823Z,9.00
2018-12-18T11:15:33.452Z,9.10
2018-12-18T11:18:00.989Z,9.10
2018-12-18T11:20:28.658Z,9.20
2018-12-18T11:22:56.699Z,9.20
2018-12-18T11:25:24.216Z,9.30
2018-12-18T11:27:51.777Z,9.30
2018-12-18T11:30:19.309Z,9.40
2018-12-18T11:32:46.817Z,9.50
2018-12-18T11:35:14.366Z,9.50
2018-12-18T11:37:41.954Z,9.60
2018-12-18T11:40:09.502Z,9.60
2018-12-18T11:42:37.093Z,9.60
2018-12-18T11:45:04.644Z,9.60
2018-12-18T11:47:32.155Z,9.60
2018-12-18T11:49:59.709Z,9.50
2018-12-18T11:52:27.297Z,9.60
2018-12-18T11:54:54.891Z,9.60
2018-12-18T11:57:22.412Z,9.60
2018-12-18T11:59:50.010Z,9.50
2018-12-18T12:02:17.568Z,9.50
2018-12-18T12:04:45.139Z,9.50
2018-12-18T12:07:12.646Z,9.50
2018-12-18T12:09:40.291Z,9.50
2018-12-18T12:12:07.857Z,9.60
2018-12-18T12:14:35.392Z,9.50
2018-12-18T12:17:02.897Z,9.60
2018-12-18T12:19:30.425Z,9.50
2018-12-18T12:21:59.050Z,9.50
2018-12-18T12:24:26.581Z,9.40
2018-12-18T12:26:56.052Z,9.40
2018-12-18T12:29:23.596Z,9.40
2018-12-18T12:31:52.011Z,9.30
2018-12-18T12:34:20.553Z,9.40
2018-12-18T12:36:48.068Z,9.50
2018-12-18T12:39:15.602Z,9.40
2018-12-18T12:41:43.124Z,9.40
2018-12-18T12:44:10.636Z,9.50
2018-12-18T12:46:38.134Z,9.50
2018-12-18T12:49:07.570Z,9.60
2018-12-18T12:51:35.084Z,9.60
2018-12-18T12:54:02.661Z,9.60
2018-12-18T12:56:30.198Z,9.60
2018-12-18T12:58:57.800Z,9.50
2018-12-18T13:01:25.350Z,9.50
2018-12-18T13:03:52.845Z,9.60
2018-12-18T13:06:20.397Z,9.50
2018-12-18T13:08:47.969Z,9.60
2018-12-18T13:11:15.551Z,9.60
2018-12-18T13:13:43.038Z,9.60
2018-12-18T13:16:10.806Z,9.50
2018-12-18T13:18:38.343Z,9.50
2018-12-18T13:21:05.901Z,9.50
2018-12-18T13:23:33.403Z,9.40
2018-12-18T13:26:00.975Z,9.40
2018-12-18T13:28:28.495Z,9.40
2018-12-18T13:30:56.115Z,9.30
2018-12-18T13:33:23.657Z,9.30
2018-12-18T13:35:51.214Z,9.20
2018-12-18T13:38:18.745Z,9.10
2018-12-18T13:40:46.289Z,9.10
2018-12-18T13:43:13.928Z,9.10
2018-12-18T13:45:41.544Z,9.10
2018-12-18T13:48:09.088Z,9.10
2018-12-18T13:50:36.855Z,9.10
2018-12-18T13:53:04.406Z,9.00
2018-12-18T13:55:36.615Z,9.00
2018-12-18T13:58:01.536Z,9.00
2018-12-18T14:00:29.081Z,9.00
2018-12-18T14:02:56.648Z,9.00
2018-12-18T14:05:24.236Z,9.00
2018-12-18T14:07:51.736Z,9.00
2018-12-18T14:10:19.346Z,9.00
2018-12-18T14:12:52.701Z,9.00
2018-12-18T14:15:20.271Z,9.00
2018-12-18T14:17:47.807Z,8.90
2018-12-18T14:20:15.358Z,8.90
2018-12-18T14:22:42.918Z,8.80
2018-12-18T14:25:10.437Z,8.80
2018-12-18T14:27:38.289Z,8.80
2018-12-18T14:30:06.251Z,8.70
2018-12-18T14:32:33.827Z,8.70
2018-12-18T14:35:01.367Z,8.70
2018-12-18T14:37:28.954Z,8.50
2018-12-18T14:39:56.521Z,8.50
2018-12-18T14:42:24.044Z,8.50
2018-12-18T14:44:51.550Z,8.40
2018-12-18T14:47:19.173Z,8.30
2018-12-18T14:49:46.699Z,8.30
2018-12-18T14:52:14.231Z,8.20
2018-12-18T14:54:41.789Z,8.20
2018-12-18T14:57:09.551Z,8.20
2018-12-18T14:59:37.175Z,8.20
2018-12-18T15:02:04.707Z,8.20
2018-12-18T15:04:32.339Z,8.20
2018-12-18T15:07:02.876Z,8.20
2018-12-18T15:09:29.441Z,8.30
2018-12-18T15:11:57.023Z,8.30
2018-12-18T15:14:24.558Z,8.30
2018-12-18T15:16:52.104Z,8.30
2018-12-18T15:19:19.633Z,8.20
2018-12-18T15:21:47.164Z,8.20
2018-12-18T15:24:14.728Z,8.20
2018-12-18T15:26:42.248Z,8.20
2018-12-18T15:29:10.711Z,8.20
2018-12-18T15:31:38.274Z,8.20
2018-12-18T15:34:06.150Z,8.20
2018-12-18T15:36:33.720Z,8.10
2018-12-18T15:39:01.266Z,8.10
2018-12-18T15:41:28.808Z,8.10
2018-12-18T15:43:56.420Z,8.10
2018-12-18T15:46:23.966Z,8.00
2018-12-18T15:48:51.553Z,8.00
2018-12-18T15:51:19.091Z,8.00
2018-12-18T15:53:46.711Z,8.00
2018-12-18T15:56:14.390Z,8.00
2018-12-18T15:58:42.279Z,8.00
2018-12-18T16:03:43.692Z,7.80
2018-12-18T16:06:11.389Z,7.70
2018-12-18T16:08:38.944Z,7.70
2018-12-18T16:11:06.561Z,7.60
2018-12-18T16:13:34.126Z,7.50
2018-12-18T16:16:01.917Z,7.40
2018-12-18T16:18:29.427Z,7.30
2018-12-18T16:20:56.979Z,7.20
2018-12-18T16:23:24.502Z,7.20
2018-12-18T16:25:52.034Z,7.20
2018-12-18T16:28:19.549Z,7.10
2018-12-18T16:30:47.112Z,7.10
2018-12-18T16:33:14.632Z,7.00
2018-12-18T16:35:46.114Z,7.10
2018-12-18T16:38:13.612Z,7.20
2018-12-18T16:40:41.156Z,7.20
2018-12-18T16:43:08.708Z,7.30
2018-12-18T16:45:36.236Z,7.30
2018-12-18T16:48:03.805Z,7.30
2018-12-18T16:50:31.371Z,7.30
2018-12-18T16:52:58.894Z,7.40
2018-12-18T16:55:26.494Z,7.40
2018-12-18T16:57:54.061Z,7.40
2018-12-18T17:00:21.639Z,7.50
2018-12-18T17:02:49.229Z,7.40
2018-12-18T17:05:17.343Z,7.40
2018-12-18T17:07:45.374Z,7.30
2018-12-18T17:10:13.749Z,7.20
2018-12-18T17:12:43.248Z,7.10
2018-12-18T17:15:10.774Z,7.00
2018-12-18T17:17:38.410Z,7.00
2018-12-18T17:20:06.826Z,7.00
2018-12-18T17:22:34.352Z,7.00
2018-12-18T17:25:01.894Z,6.90
2018-12-18T17:27:29.515Z,6.90
2018-12-18T17:29:57.054Z,6.90
2018-12-18T17:32:25.398Z,6.90
2018-12-18T17:34:53.154Z,6.90
2018-12-18T17:37:22.902Z,6.90
2018-12-18T17:39:50.433Z,7.00
2018-12-18T17:42:17.958Z,7.00
2018-12-18T17:44:46.037Z,6.90
2018-12-18T17:47:13.569Z,6.80
2018-12-18T17:49:41.108Z,6.70
2018-12-18T17:52:09.059Z,6.50
2018-12-18T17:54:36.670Z,6.40
2018-12-18T17:57:04.197Z,6.30
2018-12-18T17:59:31.742Z,6.30
2018-12-18T18:01:59.378Z,6.20
2018-12-18T18:04:26.972Z,6.20
2018-12-18T18:06:54.547Z,6.10
2018-12-18T18:09:22.901Z,6.00
2018-12-18T18:11:50.434Z,5.90
2018-12-18T18:14:18.915Z,5.90
2018-12-18T18:16:46.445Z,5.80
2018-12-18T18:19:14.063Z,5.80
2018-12-18T18:21:41.671Z,5.80
2018-12-18T18:24:09.207Z,5.70
2018-12-18T18:26:37.083Z,5.70
2018-12-18T18:29:04.751Z,5.60
2018-12-18T18:31:33.860Z,5.60
2018-12-18T18:34:01.414Z,5.60
2018-12-18T18:36:28.963Z,5.60
2018-12-18T18:38:56.824Z,5.50
2018-12-18T18:41:25.793Z,5.50
2018-12-18T18:43:54.026Z,5.40
2018-12-18T18:46:21.558Z,5.50
2018-12-18T18:48:49.623Z,5.50
2018-12-18T18:51:18.033Z,5.40
2018-12-18T18:53:45.830Z,5.40
2018-12-18T18:56:14.929Z,5.40
2018-12-18T18:58:42.468Z,5.40
2018-12-18T19:01:10.161Z,5.40
2018-12-18T19:03:39.159Z,5.30
2018-12-18T19:06:06.753Z,5.30
2018-12-18T19:08:35.554Z,5.20
2018-12-18T19:11:04.867Z,5.20
2018-12-18T19:13:35.443Z,5.20
2018-12-18T19:16:03.114Z,5.20
2018-12-18T19:18:30.722Z,5.20
2018-12-18T19:20:58.248Z,5.20
2018-12-18T19:23:25.790Z,5.20
2018-12-18T19:25:54.050Z,5.20
2018-12-18T19:28:21.810Z,5.20
2018-12-18T19:30:49.365Z,5.10
2018-12-18T19:33:16.914Z,5.10
2018-12-18T19:35:46.228Z,5.00
2018-12-18T19:38:15.472Z,5.00
2018-12-18T19:40:42.992Z,5.00
2018-12-18T19:43:10.554Z,5.00
2018-12-18T19:45:38.428Z,5.10
2018-12-18T19:48:06.447Z,5.00
2018-12-18T19:50:34.823Z,4.90
2018-12-18T19:53:03.148Z,4.90
2018-12-18T19:55:30.964Z,4.90
2018-12-18T19:57:58.663Z,4.80
2018-12-18T20:00:26.244Z,4.90
2018-12-18T20:02:54.747Z,4.80
2018-12-18T20:05:22.820Z,4.80
2018-12-18T20:07:50.353Z,4.70
2018-12-18T20:10:17.935Z,4.70
2018-12-18T20:12:45.480Z,4.70
2018-12-18T20:15:16.091Z,4.70
2018-12-18T20:17:45.689Z,4.60
2018-12-18T20:20:14.089Z,4.50
2018-12-18T20:22:42.469Z,4.50
2018-12-18T20:25:10.175Z,4.50
2018-12-18T20:27:39.390Z,4.50
2018-12-18T20:30:07.128Z,4.40
2018-12-18T20:32:34.704Z,4.40
2018-12-18T20:35:02.261Z,4.40
2018-12-18T20:37:30.623Z,4.40
2018-12-18T20:39:58.191Z,4.40
2018-12-18T20:42:28.147Z,4.30
2018-12-18T20:44:55.683Z,4.30
2018-12-18T20:47:23.458Z,4.30
2018-12-18T20:49:51.019Z,4.30
2018-12-18T20:52:18.697Z,4.30
2018-12-18T20:54:46.238Z,4.30
2018-12-18T20:57:17.641Z,4.30
2018-12-18T20:59:45.218Z,4.30
2018-12-18T21:02:12.806Z,4.20
2018-12-18T21:04:40.358Z,4.20
2018-12-18T21:07:07.911Z,4.20
2018-12-18T21:09:35.469Z,4.20
2018-12-18T21:12:05.917Z,4.20
2018-12-18T21:14:33.506Z,4.20
2018-12-18T21:17:01.054Z,4.20
2018-12-18T21:19:29.373Z,4.20
2018-12-18T21:21:56.942Z,4.20
2018-12-18T21:24:24.470Z,4.20
2018-12-18T21:26:52.020Z,4.20
2018-12-18T21:29:19.540Z,4.30
2018-12-18T21:31:47.104Z,4.30
2018-12-18T21:34:14.954Z,4.40
2018-12-18T21:36:42.506Z,4.40
2018-12-18T21:39:10.039Z,4.40
2018-12-18T21:41:39.500Z,4.50
2018-12-18T21:44:07.372Z,4.60
2018-12-18T21:46:34.991Z,4.60
2018-12-18T21:49:02.523Z,4.60
2018-12-18T21:51:30.078Z,4.70
2018-12-18T21:53:59.604Z,4.70
2018-12-18T21:56:27.642Z,4.70
2018-12-18T21:58:55.183Z,4.70
2018-12-18T22:01:22.750Z,4.70
2018-12-18T22:03:50.300Z,4.70
2018-12-18T22:06:17.856Z,4.80
2018-12-18T22:08:45.940Z,4.80
2018-12-18T22:11:13.551Z,4.70
2018-12-18T22:13:41.099Z,4.80
2018-12-18T22:16:08.644Z,4.90
2018-12-18T22:18:36.328Z,4.90
2018-12-18T22:21:03.842Z,4.90
2018-12-18T22:23:31.374Z,4.90
2018-12-18T22:25:59.774Z,4.90
2018-12-18T22:28:27.305Z,4.80
2018-12-18T22:30:54.842Z,4.80
2018-12-18T22:33:22.543Z,4.70
2018-12-18T22:35:50.174Z,4.70
2018-12-18T22:38:17.744Z,4.70
2018-12-18T22:40:45.291Z,4.70
2018-12-18T22:43:12.841Z,4.70
2018-12-18T22:45:40.446Z,4.70
2018-12-18T22:48:08.003Z,4.70
2018-12-18T22:50:35.660Z,4.70
2018-12-18T22:53:03.181Z,4.70
2018-12-18T22:55:31.124Z,4.60
2018-12-18T22:57:59.436Z,4.60
2018-12-18T23:00:32.924Z,4.60
2018-12-18T23:03:01.378Z,4.50
2018-12-18T23:05:28.893Z,4.40
2018-12-18T23:07:56.389Z,4.40
2018-12-18T23:10:23.917Z,4.20
2018-12-18T23:12:51.434Z,4.20
2018-12-18T23:15:19.036Z,4.10
2018-12-18T23:17:46.532Z,4.10
2018-12-18T23:20:14.203Z,4.00
2018-12-18T23:22:41.730Z,3.90
2018-12-18T23:25:09.240Z,3.80
2018-12-18T23:27:36.791Z,3.70
2018-12-18T23:30:05.267Z,3.60
2018-12-18T23:32:32.787Z,3.60
2018-12-18T23:35:00.307Z,3.60
2018-12-18T23:37:27.796Z,3.50
2018-12-18T23:39:55.366Z,3.50
2018-12-18T23:42:23.006Z,3.50
2018-12-18T23:44:50.519Z,3.50
2018-12-18T23:47:18.047Z,3.40
2018-12-18T23:49:45.542Z,3.40
2018-12-18T23:52:13.288Z,3.40
2018-12-18T23:54:40.794Z,3.40
2018-12-18T23:57:08.332Z,3.30
2018-12-18T23:59:35.887Z,3.30
